Time;durP1;ratioP1;P1;durP2;ratioP2;P2;SDS_P1;SDS_P2;PMS_P1;PMS_P2;Temp;Humidity;BMP_temperature;BMP_pressure;BME280_temperature;BME280_humidity;BME280_pressure;Samples;Min_cycle;Max_cycle;Signal;HPM_P1;HPM_P2
2021/09/28 00:00:29;;;;;;;0.50;0.50;;;10.90;99.90;;;;;;5009378;28;20226;-72
2021/09/28 00:02:56;;;;;;;0.52;0.52;;;10.80;99.90;;;;;;5012457;28;20215;-73
2021/09/28 00:05:22;;;;;;;0.60;0.60;;;10.70;99.90;;;;;;5009548;28;20229;-73
2021/09/28 00:07:48;;;;;;;0.50;0.50;;;10.70;99.90;;;;;;5012578;28;20211;-73
2021/09/28 00:10:14;;;;;;;0.50;0.50;;;10.70;99.90;;;;;;5009887;28;20202;-73
2021/09/28 00:12:40;;;;;;;0.60;0.60;;;10.70;99.90;;;;;;5011174;28;20579;-73
2021/09/28 00:15:08;;;;;;;0.60;0.60;;;10.70;99.90;;;;;;5011635;28;20210;-73
2021/09/28 00:17:34;;;;;;;2.25;2.05;;;10.60;99.90;;;;;;5011548;28;20594;-73
2021/09/28 00:19:59;;;;;;;0.63;0.63;;;10.60;99.90;;;;;;5012479;28;20214;-73
2021/09/28 00:22:25;;;;;;;0.70;0.70;;;10.70;99.90;;;;;;5027313;28;20215;-74
2021/09/28 00:24:51;;;;;;;0.63;0.63;;;10.70;99.90;;;;;;5010908;28;20345;-73
2021/09/28 00:27:17;;;;;;;0.70;0.70;;;10.70;99.90;;;;;;5012198;28;20221;-73
2021/09/28 00:29:42;;;;;;;0.60;0.60;;;10.70;99.90;;;;;;5010755;28;20210;-73
2021/09/28 00:32:08;;;;;;;0.63;0.63;;;10.70;99.90;;;;;;5012188;28;20207;-73
2021/09/28 00:34:34;;;;;;;4.13;1.15;;;10.80;99.90;;;;;;5010732;28;20207;-72
2021/09/28 00:37:00;;;;;;;0.60;0.60;;;10.70;99.90;;;;;;5011919;28;20209;-73
2021/09/28 00:39:26;;;;;;;0.30;0.30;;;10.80;99.90;;;;;;5012056;28;20680;-73
2021/09/28 00:41:52;;;;;;;0.40;0.40;;;10.80;99.90;;;;;;5012173;28;20346;-73
2021/09/28 00:44:30;;;;;;;0.30;0.30;;;10.80;99.90;;;;;;5010894;28;20210;-74
2021/09/28 00:46:55;;;;;;;0.30;0.30;;;10.90;99.90;;;;;;5012157;28;20215;-73
2021/09/28 00:49:21;;;;;;;0.20;0.20;;;10.80;99.90;;;;;;5014063;28;20271;-73
2021/09/28 00:51:47;;;;;;;0.20;0.20;;;10.90;99.90;;;;;;5017248;28;20206;-73
2021/09/28 00:54:12;;;;;;;0.20;0.20;;;10.90;99.90;;;;;;5017508;28;20284;-74
2021/09/28 00:56:38;;;;;;;0.20;0.20;;;10.90;99.90;;;;;;5017011;28;20654;-72
2021/09/28 00:59:06;;;;;;;0.20;0.20;;;10.90;99.90;;;;;;5018650;28;20187;-72
2021/09/28 01:01:33;;;;;;;0.20;0.20;;;10.90;99.90;;;;;;5016899;28;20309;-72
2021/09/28 01:03:59;;;;;;;0.20;0.20;;;10.90;99.90;;;;;;5018539;28;20309;-72
2021/09/28 01:06:25;;;;;;;0.20;0.20;;;10.90;99.90;;;;;;5018298;28;20232;-73
2021/09/28 01:08:50;;;;;;;0.22;0.22;;;10.90;99.90;;;;;;5017344;28;20219;-72
2021/09/28 01:11:16;;;;;;;0.30;0.30;;;10.90;99.90;;;;;;5017168;28;20198;-73
2021/09/28 01:13:42;;;;;;;0.25;0.25;;;10.90;99.90;;;;;;5016813;28;20198;-73
2021/09/28 01:16:10;;;;;;;0.47;0.47;;;10.90;99.90;;;;;;5016954;28;20213;-73
2021/09/28 01:18:37;;;;;;;0.20;0.20;;;10.90;99.90;;;;;;5016713;28;20693;-72
2021/09/28 01:21:14;;;;;;;0.20;0.20;;;11.00;99.90;;;;;;5018381;28;20214;-73
2021/09/28 01:23:44;;;;;;;0.50;0.47;;;11.00;99.90;;;;;;5018032;28;20677;-72
2021/09/28 01:26:13;;;;;;;0.30;0.30;;;11.00;99.90;;;;;;5018062;28;20294;-72
2021/09/28 01:28:39;;;;;;;0.35;0.35;;;11.10;99.90;;;;;;5017700;28;20214;-73
2021/09/28 01:31:05;;;;;;;0.20;0.20;;;11.10;99.90;;;;;;5018090;28;20207;-73
2021/09/28 01:33:31;;;;;;;0.25;0.25;;;11.00;99.90;;;;;;5017710;28;20587;-73
2021/09/28 01:35:56;;;;;;;0.68;0.43;;;11.10;99.90;;;;;;5016653;28;20233;-73
2021/09/28 01:38:22;;;;;;;0.95;0.57;;;11.00;99.90;;;;;;5016539;28;20207;-74
2021/09/28 01:40:48;;;;;;;0.20;0.20;;;11.00;99.90;;;;;;5018102;28;20211;-73
2021/09/28 01:43:19;;;;;;;0.32;0.32;;;11.10;99.90;;;;;;5015380;28;20214;-74
2021/09/28 01:45:44;;;;;;;0.20;0.20;;;11.10;99.90;;;;;;5017925;28;20210;-73
2021/09/28 01:48:10;;;;;;;0.20;0.20;;;11.10;99.90;;;;;;5016462;28;20207;-73
2021/09/28 01:50:37;;;;;;;0.30;0.30;;;11.10;99.90;;;;;;5017676;28;20199;-73
2021/09/28 01:53:04;;;;;;;0.20;0.20;;;11.10;99.90;;;;;;5017863;28;20205;-73
2021/09/28 01:55:29;;;;;;;0.30;0.30;;;11.10;99.90;;;;;;5016353;28;20203;-74
2021/09/28 01:57:59;;;;;;;0.20;0.20;;;11.10;99.90;;;;;;5017779;28;20337;-73
2021/09/28 02:00:26;;;;;;;0.38;0.38;;;11.00;99.90;;;;;;4999459;28;20235;-73
2021/09/28 02:02:52;;;;;;;0.20;0.20;;;11.00;99.90;;;;;;5008817;28;20238;-72
2021/09/28 02:05:18;;;;;;;0.20;0.20;;;11.00;99.90;;;;;;5013870;28;20210;-73
2021/09/28 02:07:44;;;;;;;0.25;0.25;;;11.00;99.90;;;;;;5014226;28;20306;-73
2021/09/28 02:10:11;;;;;;;0.30;0.30;;;11.10;99.90;;;;;;5013109;28;20270;-73
2021/09/28 02:12:38;;;;;;;0.35;0.35;;;11.10;99.90;;;;;;5012697;28;20211;-72
2021/09/28 02:15:04;;;;;;;0.30;0.30;;;11.10;99.90;;;;;;5014300;28;20585;-72
2021/09/28 02:17:30;;;;;;;0.68;0.68;;;11.10;99.90;;;;;;5013835;28;20221;-72
2021/09/28 02:19:56;;;;;;;0.20;0.20;;;11.10;99.90;;;;;;5011672;28;20613;-72
2021/09/28 02:22:21;;;;;;;0.20;0.20;;;11.00;99.90;;;;;;5013830;28;20207;-72
2021/09/28 02:24:47;;;;;;;1.85;0.68;;;11.00;99.90;;;;;;5013422;28;20700;-72
2021/09/28 02:27:13;;;;;;;0.20;0.20;;;11.00;99.90;;;;;;5014062;28;20277;-72
2021/09/28 02:29:38;;;;;;;0.30;0.30;;;11.00;99.90;;;;;;5011156;28;20545;-72
2021/09/28 02:32:05;;;;;;;0.20;0.20;;;10.90;99.90;;;;;;5013938;28;20199;-72
2021/09/28 02:34:35;;;;;;;0.30;0.30;;;10.90;99.90;;;;;;5012267;28;20191;-72
2021/09/28 02:37:04;;;;;;;0.30;0.30;;;10.90;99.90;;;;;;5013937;28;20198;-72
2021/09/28 02:39:30;;;;;;;0.40;0.40;;;10.90;99.90;;;;;;5012328;28;20264;-72
2021/09/28 02:41:56;;;;;;;0.63;0.63;;;10.90;99.90;;;;;;5012339;28;20205;-72
2021/09/28 02:44:22;;;;;;;0.20;0.20;;;10.80;99.90;;;;;;5013398;28;20202;-72
2021/09/28 02:46:47;;;;;;;0.20;0.20;;;10.90;99.90;;;;;;5012314;28;20571;-72
2021/09/28 02:49:14;;;;;;;1.27;0.77;;;10.80;99.90;;;;;;5013733;28;20284;-72
2021/09/28 02:51:40;;;;;;;0.30;0.30;;;10.80;99.90;;;;;;5013427;28;20198;-73
2021/09/28 02:54:05;;;;;;;0.20;0.20;;;10.80;99.90;;;;;;5013670;28;20661;-73
2021/09/28 02:56:31;;;;;;;0.20;0.20;;;10.80;99.90;;;;;;5012879;28;20265;-73
2021/09/28 02:58:57;;;;;;;0.20;0.20;;;10.80;99.90;;;;;;5012319;28;20269;-73
2021/09/28 03:01:23;;;;;;;0.20;0.20;;;10.80;99.90;;;;;;5011088;28;20579;-74
2021/09/28 03:03:49;;;;;;;1.55;1.25;;;10.80;99.90;;;;;;5013047;28;20250;-73
2021/09/28 03:06:14;;;;;;;3.50;1.05;;;10.70;99.90;;;;;;5012057;28;20206;-73
2021/09/28 03:08:40;;;;;;;0.20;0.20;;;10.70;99.90;;;;;;5012929;28;20218;-73
2021/09/28 03:11:10;;;;;;;0.20;0.20;;;10.70;99.90;;;;;;5013332;28;20207;-72
2021/09/28 03:13:36;;;;;;;1.48;1.38;;;10.80;99.90;;;;;;5011869;28;20286;-73
2021/09/28 03:16:02;;;;;;;0.20;0.20;;;10.80;99.90;;;;;;5012109;28;20286;-73
2021/09/28 03:18:28;;;;;;;0.40;0.40;;;10.80;99.90;;;;;;5013044;28;20665;-73
2021/09/28 03:20:54;;;;;;;0.32;0.32;;;10.70;99.90;;;;;;5011667;28;20231;-74
2021/09/28 03:23:19;;;;;;;0.40;0.40;;;10.80;99.90;;;;;;5010293;28;20739;-72
2021/09/28 03:25:46;;;;;;;0.20;0.20;;;10.80;99.90;;;;;;5010366;28;20218;-74
2021/09/28 03:28:12;;;;;;;0.43;0.43;;;10.80;99.90;;;;;;5011471;28;20536;-72
2021/09/28 03:30:38;;;;;;;0.47;0.47;;;10.80;99.90;;;;;;5012913;28;21104;-73
2021/09/28 03:33:05;;;;;;;0.52;0.52;;;10.70;99.90;;;;;;5011530;28;20682;-72
2021/09/28 03:35:31;;;;;;;0.28;0.28;;;10.80;99.90;;;;;;5012628;28;20194;-73
2021/09/28 03:37:56;;;;;;;0.25;0.25;;;10.80;99.90;;;;;;5011475;28;20657;-72
2021/09/28 03:40:22;;;;;;;0.30;0.30;;;10.80;99.90;;;;;;5012666;28;20792;-74
2021/09/28 03:42:48;;;;;;;0.30;0.30;;;10.80;99.90;;;;;;5011490;28;20526;-74
2021/09/28 03:45:14;;;;;;;0.38;0.38;;;10.80;99.90;;;;;;5011298;28;20191;-73
2021/09/28 03:47:40;;;;;;;0.63;0.40;;;10.80;99.90;;;;;;5012585;28;20232;-73
2021/09/28 03:50:07;;;;;;;0.20;0.20;;;10.80;99.90;;;;;;5012321;28;20199;-74
2021/09/28 03:52:33;;;;;;;0.35;0.35;;;10.80;99.90;;;;;;5011822;28;20650;-74
2021/09/28 03:54:59;;;;;;;0.20;0.20;;;10.80;99.90;;;;;;5010956;28;20278;-74
2021/09/28 03:57:25;;;;;;;0.30;0.30;;;10.80;99.90;;;;;;5010916;28;20216;-72
2021/09/28 03:59:50;;;;;;;0.30;0.30;;;10.80;99.90;;;;;;5009981;28;20217;-72
2021/09/28 04:02:16;;;;;;;0.15;0.15;;;10.80;99.90;;;;;;5010816;28;20230;-72
2021/09/28 04:04:42;;;;;;;0.35;0.35;;;10.80;99.90;;;;;;5009594;28;20202;-71
2021/09/28 04:07:08;;;;;;;0.30;0.30;;;10.80;99.90;;;;;;5011775;28;20233;-73
2021/09/28 04:09:34;;;;;;;0.28;0.28;;;10.80;99.90;;;;;;5011043;28;20209;-73
2021/09/28 04:12:00;;;;;;;0.32;0.32;;;10.80;99.90;;;;;;5009919;28;20195;-72
2021/09/28 04:14:26;;;;;;;0.20;0.20;;;10.80;99.90;;;;;;5022201;28;20572;-73
2021/09/28 04:16:52;;;;;;;0.40;0.40;;;10.80;99.90;;;;;;5023812;28;20238;-74
2021/09/28 04:19:17;;;;;;;0.43;0.43;;;10.80;99.90;;;;;;5022745;28;20242;-74
2021/09/28 04:21:43;;;;;;;0.30;0.30;;;10.80;99.90;;;;;;5010738;28;20562;-74
2021/09/28 04:24:11;;;;;;;0.20;0.20;;;10.80;99.90;;;;;;5010343;28;20199;-71
2021/09/28 04:26:36;;;;;;;0.20;0.20;;;10.80;99.90;;;;;;5011671;28;20676;-74
2021/09/28 04:29:02;;;;;;;0.30;0.30;;;10.90;99.90;;;;;;5011684;28;20349;-70
2021/09/28 04:31:28;;;;;;;0.17;0.17;;;10.80;99.90;;;;;;5010344;28;20234;-72
2021/09/28 04:33:54;;;;;;;1.58;1.15;;;10.80;99.90;;;;;;5011192;28;20195;-74
2021/09/28 04:36:22;;;;;;;0.30;0.30;;;10.90;99.90;;;;;;5011804;28;20191;-74
2021/09/28 04:38:48;;;;;;;0.20;0.20;;;10.80;99.90;;;;;;5012344;28;20206;-74
2021/09/28 04:41:14;;;;;;;0.20;0.20;;;10.90;99.90;;;;;;5012314;28;20219;-74
2021/09/28 04:43:39;;;;;;;0.20;0.20;;;10.90;99.90;;;;;;5009244;28;20242;-74
2021/09/28 04:46:05;;;;;;;0.32;0.32;;;10.90;99.90;;;;;;5012271;28;20234;-74
2021/09/28 04:48:31;;;;;;;0.43;0.43;;;10.90;99.90;;;;;;5011611;28;20221;-74
2021/09/28 04:50:57;;;;;;;2.13;0.93;;;10.90;99.90;;;;;;5010638;28;20293;-73
2021/09/28 04:53:24;;;;;;;0.30;0.30;;;10.90;99.90;;;;;;5010184;28;20203;-73
2021/09/28 04:55:54;;;;;;;0.20;0.20;;;10.90;99.90;;;;;;5011863;28;20231;-73
2021/09/28 04:58:22;;;;;;;0.30;0.30;;;10.90;99.90;;;;;;5011462;28;20202;-72
2021/09/28 05:00:48;;;;;;;0.32;0.32;;;10.90;99.90;;;;;;5015752;28;20202;-73
2021/09/28 05:03:13;;;;;;;0.20;0.20;;;10.90;99.90;;;;;;5019421;28;20317;-73
2021/09/28 05:05:39;;;;;;;0.30;0.30;;;11.00;99.90;;;;;;5010563;28;20297;-73
2021/09/28 05:08:05;;;;;;;0.20;0.20;;;11.00;99.90;;;;;;5010443;28;20223;-73
2021/09/28 05:10:31;;;;;;;0.30;0.30;;;11.00;99.90;;;;;;5008931;28;20203;-73
2021/09/28 05:12:56;;;;;;;0.50;0.50;;;11.00;99.90;;;;;;5011899;28;20191;-74
2021/09/28 05:15:22;;;;;;;0.47;0.47;;;11.00;99.90;;;;;;5009573;28;20790;-75
2021/09/28 05:17:48;;;;;;;0.20;0.20;;;11.00;99.90;;;;;;5010392;28;20218;-75
2021/09/28 05:20:13;;;;;;;0.30;0.30;;;11.00;99.90;;;;;;5011727;28;20194;-75
2021/09/28 05:22:39;;;;;;;0.60;0.60;;;11.00;99.90;;;;;;5011893;28;20289;-74
2021/09/28 05:25:05;;;;;;;0.30;0.30;;;11.10;99.90;;;;;;5009942;28;20211;-74
2021/09/28 05:27:31;;;;;;;0.30;0.30;;;11.10;99.90;;;;;;5011115;28;20215;-73
2021/09/28 05:29:57;;;;;;;0.45;0.45;;;11.10;99.90;;;;;;5010344;28;20218;-75
2021/09/28 05:32:22;;;;;;;0.20;0.20;;;11.10;99.90;;;;;;5010110;28;20744;-74
2021/09/28 05:34:48;;;;;;;0.22;0.22;;;11.10;99.90;;;;;;5010184;28;20257;-74
2021/09/28 05:37:13;;;;;;;0.45;0.45;;;11.10;99.90;;;;;;5012668;28;20222;-74
2021/09/28 05:39:39;;;;;;;0.30;0.30;;;11.10;99.90;;;;;;5013855;28;20215;-74
2021/09/28 05:42:05;;;;;;;0.50;0.50;;;11.10;99.90;;;;;;5013710;28;20214;-74
2021/09/28 05:44:31;;;;;;;0.20;0.20;;;11.10;99.90;;;;;;5013772;28;20210;-74
2021/09/28 05:46:56;;;;;;;0.22;0.22;;;11.20;99.90;;;;;;5015207;28;20206;-73
2021/09/28 05:49:22;;;;;;;0.20;0.20;;;11.10;99.90;;;;;;5013847;28;20270;-74
2021/09/28 05:51:54;;;;;;;0.30;0.30;;;11.20;99.90;;;;;;5014097;28;20286;-74
2021/09/28 05:54:21;;;;;;;0.20;0.20;;;11.20;99.90;;;;;;5015089;28;20278;-73
2021/09/28 05:56:51;;;;;;;0.30;0.30;;;11.20;99.90;;;;;;5013603;28;20242;-76
2021/09/28 05:59:16;;;;;;;0.30;0.30;;;11.20;99.90;;;;;;5013699;28;20209;-73
2021/09/28 06:01:43;;;;;;;0.60;0.60;;;11.20;99.90;;;;;;5013816;28;20290;-73
2021/09/28 06:04:09;;;;;;;0.20;0.20;;;11.20;99.90;;;;;;5012299;28;20218;-73
2021/09/28 06:06:35;;;;;;;0.30;0.30;;;11.20;99.90;;;;;;5013673;28;20215;-73
2021/09/28 06:09:02;;;;;;;0.43;0.43;;;11.20;99.90;;;;;;5014556;28;20222;-74
2021/09/28 06:11:27;;;;;;;0.30;0.30;;;11.20;99.90;;;;;;5014380;28;20202;-73
2021/09/28 06:13:53;;;;;;;0.20;0.20;;;11.20;99.90;;;;;;5014920;28;20345;-74
2021/09/28 06:16:19;;;;;;;0.20;0.20;;;11.20;99.90;;;;;;5014110;28;20198;-72
2021/09/28 06:18:45;;;;;;;0.30;0.30;;;11.20;99.90;;;;;;5014098;28;20287;-73
2021/09/28 06:21:11;;;;;;;0.20;0.20;;;11.20;99.90;;;;;;5014708;28;20229;-73
2021/09/28 06:23:37;;;;;;;0.22;0.22;;;11.20;99.90;;;;;;5013184;28;20202;-75
2021/09/28 06:26:03;;;;;;;0.47;0.40;;;11.30;99.90;;;;;;5013518;28;20289;-75
2021/09/28 06:28:29;;;;;;;0.38;0.38;;;11.30;99.90;;;;;;5012886;28;20223;-76
2021/09/28 06:30:56;;;;;;;0.35;0.35;;;11.30;99.90;;;;;;5014478;28;20211;-75
2021/09/28 06:33:21;;;;;;;0.32;0.32;;;11.30;99.90;;;;;;5014167;28;20700;-74
2021/09/28 06:35:47;;;;;;;0.30;0.30;;;11.30;99.90;;;;;;5013109;28;20226;-76
2021/09/28 06:38:13;;;;;;;0.20;0.20;;;11.30;99.90;;;;;;5014372;28;20413;-76
2021/09/28 06:40:39;;;;;;;0.20;0.20;;;11.40;99.90;;;;;;5013908;28;20795;-72
2021/09/28 06:43:06;;;;;;;0.30;0.30;;;11.30;99.90;;;;;;5014203;28;20210;-73
2021/09/28 06:45:33;;;;;;;0.88;0.50;;;11.30;99.90;;;;;;5011321;28;20257;-74
2021/09/28 06:47:58;;;;;;;0.20;0.20;;;11.40;99.90;;;;;;5012237;28;20696;-73
2021/09/28 06:50:24;;;;;;;0.30;0.30;;;11.40;99.90;;;;;;5012494;28;20199;-73
2021/09/28 06:52:50;;;;;;;0.65;0.57;;;11.40;99.90;;;;;;5013867;28;20633;-74
2021/09/28 06:55:16;;;;;;;0.20;0.20;;;11.40;99.90;;;;;;5012437;28;20273;-74
2021/09/28 06:57:41;;;;;;;0.80;0.50;;;11.40;99.90;;;;;;5012460;28;20302;-74
2021/09/28 07:00:07;;;;;;;0.25;0.25;;;11.40;99.90;;;;;;5012419;28;20550;-72
2021/09/28 07:02:33;;;;;;;0.20;0.20;;;11.40;99.90;;;;;;5012340;28;20654;-73
2021/09/28 07:04:59;;;;;;;0.20;0.20;;;11.40;99.90;;;;;;5013338;28;20203;-74
2021/09/28 07:07:27;;;;;;;0.55;0.47;;;11.40;99.90;;;;;;5012570;28;20234;-75
2021/09/28 07:09:53;;;;;;;0.40;0.40;;;11.40;99.90;;;;;;5013499;28;20728;-75
2021/09/28 07:12:19;;;;;;;0.20;0.20;;;11.40;99.90;;;;;;5012120;28;20214;-76
2021/09/28 07:14:44;;;;;;;0.45;0.30;;;11.40;99.90;;;;;;5012095;28;20646;-76
2021/09/28 07:17:10;;;;;;;0.82;0.65;;;11.40;99.90;;;;;;5010961;28;20214;-76
2021/09/28 07:19:36;;;;;;;0.30;0.30;;;11.40;99.90;;;;;;5012074;28;20241;-76
2021/09/28 07:22:03;;;;;;;0.20;0.20;;;11.40;99.90;;;;;;5012000;28;20199;-76
2021/09/28 07:24:28;;;;;;;0.30;0.30;;;11.40;99.90;;;;;;5010877;28;20211;-75
2021/09/28 07:26:54;;;;;;;0.20;0.20;;;11.40;99.90;;;;;;5011892;28;20210;-76
2021/09/28 07:29:20;;;;;;;0.30;0.30;;;11.40;99.90;;;;;;5012010;28;20206;-76
2021/09/28 07:31:45;;;;;;;0.28;0.28;;;11.40;99.90;;;;;;5013212;28;20203;-76
2021/09/28 07:34:11;;;;;;;3.65;0.60;;;11.40;99.90;;;;;;5012145;28;20203;-75
2021/09/28 07:36:37;;;;;;;0.57;0.40;;;11.40;99.90;;;;;;5010521;28;20372;-76
2021/09/28 07:39:04;;;;;;;0.20;0.20;;;11.50;99.90;;;;;;5013263;28;20627;-76
2021/09/28 07:41:31;;;;;;;0.20;0.20;;;11.50;99.90;;;;;;5011575;28;20202;-75
2021/09/28 07:43:56;;;;;;;0.20;0.20;;;11.50;99.90;;;;;;5011745;28;20199;-75
2021/09/28 07:46:23;;;;;;;0.20;0.20;;;11.50;99.90;;;;;;5012880;28;20214;-75
2021/09/28 07:48:48;;;;;;;0.20;0.20;;;11.50;99.90;;;;;;5012746;28;20252;-76
2021/09/28 07:51:15;;;;;;;0.47;0.47;;;11.50;99.90;;;;;;5011540;28;20367;-76
2021/09/28 07:53:41;;;;;;;0.20;0.20;;;11.50;99.90;;;;;;5011498;28;20211;-75
2021/09/28 07:56:07;;;;;;;0.70;0.50;;;11.50;99.90;;;;;;5013009;28;20544;-75
2021/09/28 07:58:33;;;;;;;0.10;0.10;;;11.50;99.90;;;;;;5011616;28;20211;-75
2021/09/28 08:00:59;;;;;;;0.50;0.50;;;11.50;99.90;;;;;;5012155;28;20199;-76
2021/09/28 08:03:24;;;;;;;0.35;0.32;;;11.50;99.90;;;;;;5011138;28;20211;-75
2021/09/28 08:05:50;;;;;;;1.05;0.60;;;11.60;99.90;;;;;;5012334;28;20693;-76
2021/09/28 08:08:16;;;;;;;0.20;0.20;;;11.60;99.90;;;;;;5027924;28;20354;-76
2021/09/28 08:10:42;;;;;;;2.13;0.68;;;11.60;99.90;;;;;;5012369;28;20636;-76
2021/09/28 08:13:10;;;;;;;0.20;0.20;;;11.60;99.90;;;;;;5011247;28;20252;-76
2021/09/28 08:15:36;;;;;;;0.63;0.30;;;11.60;99.90;;;;;;5011295;28;20280;-76
2021/09/28 08:18:03;;;;;;;0.20;0.20;;;11.70;99.90;;;;;;5011320;28;20195;-76
2021/09/28 08:20:30;;;;;;;0.20;0.20;;;11.70;99.90;;;;;;5012224;28;20253;-76
2021/09/28 08:22:59;;;;;;;0.20;0.20;;;11.70;99.90;;;;;;5010861;28;20217;-76
2021/09/28 08:25:34;;;;;;;0.85;0.40;;;11.70;99.90;;;;;;5011968;28;20253;-76
2021/09/28 08:30:45;;;;;;;0.10;0.10;;;11.70;99.90;;;;;;5012330;28;20278;-76
2021/09/28 08:33:10;;;;;;;0.40;0.40;;;11.70;99.90;;;;;;5012159;28;20759;-76
2021/09/28 08:35:36;;;;;;;0.32;0.30;;;11.70;99.90;;;;;;5012296;28;20202;-76
2021/09/28 08:38:02;;;;;;;0.40;0.30;;;11.80;99.90;;;;;;5011151;28;20679;-76
2021/09/28 08:40:27;;;;;;;0.20;0.20;;;11.80;99.90;;;;;;5012173;28;20674;-76
2021/09/28 08:42:55;;;;;;;2.55;0.63;;;11.80;99.90;;;;;;5010903;28;20217;-76
2021/09/28 08:45:22;;;;;;;0.45;0.45;;;11.80;99.90;;;;;;5010433;28;20207;-76
2021/09/28 08:47:48;;;;;;;0.30;0.30;;;11.80;99.90;;;;;;5011063;28;20206;-76
2021/09/28 08:50:19;;;;;;;0.30;0.30;;;11.80;99.90;;;;;;5010893;28;20233;-76
2021/09/28 08:52:47;;;;;;;0.28;0.28;;;11.80;99.90;;;;;;5010701;28;20267;-76
2021/09/28 08:55:13;;;;;;;0.20;0.20;;;11.80;99.90;;;;;;5010740;28;20190;-75
2021/09/28 08:57:41;;;;;;;0.20;0.20;;;11.80;99.90;;;;;;5010730;28;20194;-75
2021/09/28 09:00:27;;;;;;;0.30;0.30;;;11.80;99.90;;;;;;5009117;28;20207;-75
2021/09/28 09:02:53;;;;;;;0.25;0.25;;;11.80;99.90;;;;;;4993513;28;20234;-76
2021/09/28 09:05:19;;;;;;;0.20;0.20;;;11.80;99.90;;;;;;5011889;28;20575;-76
2021/09/28 09:08:06;;;;;;;0.20;0.20;;;11.80;99.90;;;;;;5012353;28;20218;-74
2021/09/28 09:10:35;;;;;;;0.30;0.30;;;11.70;99.90;;;;;;4994940;28;20234;-75
2021/09/28 09:13:01;;;;;;;0.20;0.20;;;11.70;99.90;;;;;;5016118;28;20214;-74
2021/09/28 09:15:33;;;;;;;0.30;0.30;;;11.80;99.90;;;;;;5014946;28;20225;-76
2021/09/28 09:18:04;;;;;;;0.50;0.50;;;11.70;99.90;;;;;;5013985;28;20250;-75
2021/09/28 09:20:42;;;;;;;0.50;0.50;;;11.80;99.90;;;;;;5013549;28;20616;-74
2021/09/28 09:23:27;;;;;;;0.20;0.20;;;11.80;99.90;;;;;;5013896;28;20538;-73
2021/09/28 09:26:18;;;;;;;1.02;0.47;;;11.80;99.90;;;;;;4999386;28;20569;-73
2021/09/28 09:28:52;;;;;;;0.52;0.47;;;11.80;99.90;;;;;;5015472;28;20222;-74
2021/09/28 09:31:29;;;;;;;0.32;0.32;;;11.80;99.90;;;;;;5015349;28;20202;-74
2021/09/28 09:34:06;;;;;;;0.30;0.30;;;11.80;99.90;;;;;;5014255;28;20276;-75
2021/09/28 09:36:32;;;;;;;0.25;0.25;;;11.90;99.90;;;;;;5014031;28;20195;-75
2021/09/28 09:38:58;;;;;;;0.28;0.28;;;11.90;99.90;;;;;;5015296;28;20207;-74
2021/09/28 09:41:29;;;;;;;0.25;0.25;;;11.90;99.90;;;;;;5014035;28;20234;-74
2021/09/28 09:44:09;;;;;;;0.30;0.30;;;11.90;99.90;;;;;;5013784;28;20200;-74
2021/09/28 09:46:45;;;;;;;0.20;0.20;;;11.90;99.90;;;;;;5013524;28;20788;-74
2021/09/28 09:49:13;;;;;;;0.25;0.25;;;11.90;99.90;;;;;;5015312;28;20282;-74
2021/09/28 09:51:51;;;;;;;0.20;0.20;;;12.00;99.90;;;;;;5012312;28;20211;-75
2021/09/28 09:54:16;;;;;;;0.40;0.40;;;12.00;99.90;;;;;;5015167;28;20545;-75
2021/09/28 09:56:49;;;;;;;0.38;0.38;;;12.00;99.90;;;;;;5014718;28;20202;-73
2021/09/28 09:59:17;;;;;;;0.20;0.20;;;12.00;99.90;;;;;;5013502;28;20298;-75
2021/09/28 10:01:44;;;;;;;0.28;0.28;;;12.10;99.90;;;;;;5011657;28;20227;-75
2021/09/28 10:04:12;;;;;;;0.70;0.70;;;12.10;99.90;;;;;;5013714;28;20245;-75
2021/09/28 10:06:38;;;;;;;0.60;0.60;;;12.10;99.90;;;;;;5014697;28;20654;-74
2021/09/28 10:09:14;;;;;;;0.60;0.60;;;12.10;99.90;;;;;;5015374;28;20226;-75
2021/09/28 10:11:40;;;;;;;1.05;1.05;;;12.10;99.90;;;;;;5014431;28;20206;-76
2021/09/28 10:14:06;;;;;;;0.60;0.60;;;12.10;99.90;;;;;;5013856;28;20230;-75
2021/09/28 10:16:37;;;;;;;0.80;0.80;;;12.10;99.90;;;;;;5014821;28;20198;-76
2021/09/28 10:19:23;;;;;;;0.63;0.63;;;12.10;99.90;;;;;;5012841;28;20242;-75
2021/09/28 10:21:48;;;;;;;0.65;0.65;;;12.20;99.90;;;;;;5012926;28;20214;-76
2021/09/28 10:24:17;;;;;;;0.70;0.70;;;12.20;99.90;;;;;;5013674;28;20253;-72
2021/09/28 10:26:47;;;;;;;0.70;0.70;;;12.20;99.90;;;;;;5012054;28;20256;-74
2021/09/28 10:29:38;;;;;;;0.50;0.50;;;12.20;99.90;;;;;;5014741;28;20250;-75
2021/09/28 10:32:24;;;;;;;0.77;0.77;;;12.20;99.90;;;;;;5013760;28;20207;-73
2021/09/28 10:35:14;;;;;;;0.60;0.60;;;12.20;99.90;;;;;;4998747;28;20206;-74
2021/09/28 10:37:54;;;;;;;0.50;0.50;;;12.30;99.90;;;;;;5011300;28;20218;-74
2021/09/28 10:40:20;;;;;;;0.68;0.68;;;12.30;99.90;;;;;;5002466;28;20234;-74
2021/09/28 10:42:49;;;;;;;0.50;0.50;;;12.30;99.90;;;;;;5013234;28;20575;-74
2021/09/28 10:45:28;;;;;;;1.52;1.13;;;12.20;99.90;;;;;;5014424;28;20673;-74
2021/09/28 10:48:07;;;;;;;0.60;0.60;;;12.20;99.90;;;;;;5014108;28;20206;-75
2021/09/28 10:50:39;;;;;;;0.80;0.80;;;12.20;99.90;;;;;;5014026;28;20226;-74
2021/09/28 10:53:20;;;;;;;1.35;1.25;;;12.30;99.90;;;;;;5013983;28;20198;-75
2021/09/28 10:56:08;;;;;;;0.90;0.90;;;12.30;99.90;;;;;;5013809;28;20203;-76
2021/09/28 10:58:51;;;;;;;0.50;0.50;;;12.30;99.90;;;;;;5013596;28;20203;-73
2021/09/28 11:01:17;;;;;;;0.57;0.57;;;12.30;99.90;;;;;;5013784;28;20223;-74
2021/09/28 11:03:51;;;;;;;0.63;0.63;;;12.40;99.90;;;;;;5011820;28;20232;-74
2021/09/28 11:06:37;;;;;;;0.60;0.60;;;12.40;99.90;;;;;;5002830;28;20585;-74
2021/09/28 11:09:03;;;;;;;0.60;0.60;;;12.40;99.90;;;;;;5010185;28;20211;-74
2021/09/28 11:11:29;;;;;;;0.70;0.70;;;12.40;99.90;;;;;;5013561;28;20218;-74
2021/09/28 11:14:03;;;;;;;0.70;0.70;;;12.40;99.90;;;;;;5011501;28;20213;-73
2021/09/28 11:16:38;;;;;;;0.60;0.60;;;12.50;99.90;;;;;;5013508;28;20213;-74
2021/09/28 11:19:04;;;;;;;0.52;0.52;;;12.40;99.90;;;;;;5012442;28;20206;-73
2021/09/28 11:21:29;;;;;;;1.17;0.80;;;12.40;99.90;;;;;;5013331;28;20226;-75
2021/09/28 11:23:55;;;;;;;0.95;0.93;;;12.50;99.90;;;;;;5010822;28;20206;-72
2021/09/28 11:26:38;;;;;;;0.63;0.63;;;12.50;99.90;;;;;;5013283;28;20203;-73
2021/09/28 11:29:06;;;;;;;1.85;1.05;;;12.50;99.90;;;;;;5011940;28;20210;-73
2021/09/28 11:31:34;;;;;;;0.70;0.70;;;12.50;99.90;;;;;;5011903;28;20658;-72
2021/09/28 11:34:00;;;;;;;0.60;0.60;;;12.50;99.90;;;;;;5019699;28;20620;-74
2021/09/28 11:36:34;;;;;;;0.60;0.55;;;12.50;99.90;;;;;;5013304;28;20198;-73
2021/09/28 11:39:01;;;;;;;0.63;0.63;;;12.50;99.90;;;;;;5010813;28;20691;-74
2021/09/28 11:41:27;;;;;;;1.05;0.80;;;12.50;99.90;;;;;;5013070;28;20278;-73
2021/09/28 11:43:58;;;;;;;0.52;0.52;;;12.40;99.90;;;;;;5011712;28;20202;-74
2021/09/28 11:46:29;;;;;;;0.60;0.60;;;12.50;99.90;;;;;;5010143;28;20230;-72
2021/09/28 11:48:58;;;;;;;0.60;0.60;;;12.50;99.90;;;;;;5012975;28;20207;-71
2021/09/28 11:51:29;;;;;;;0.70;0.70;;;12.50;99.90;;;;;;5012639;28;20357;-71
2021/09/28 11:53:58;;;;;;;0.60;0.60;;;12.40;99.90;;;;;;5013073;28;20274;-76
2021/09/28 11:56:26;;;;;;;0.75;0.75;;;12.40;99.90;;;;;;5011248;28;20226;-76
2021/09/28 11:58:53;;;;;;;0.50;0.50;;;12.40;99.90;;;;;;4997678;28;20207;-76
2021/09/28 12:01:20;;;;;;;0.50;0.50;;;12.40;99.90;;;;;;5009850;28;20211;-74
2021/09/28 12:09:51;;;;;;;0.55;0.55;;;12.40;99.90;;;;;;5011265;28;20210;-74
2021/09/28 12:12:22;;;;;;;0.60;0.60;;;12.40;99.90;;;;;;5011134;28;20202;-75
2021/09/28 12:14:55;;;;;;;0.60;0.60;;;12.40;99.90;;;;;;5012490;28;20583;-74
2021/09/28 12:17:21;;;;;;;2.75;1.67;;;12.40;99.90;;;;;;5012316;28;20334;-76
2021/09/28 12:19:51;;;;;;;2.63;1.02;;;12.40;99.90;;;;;;5011138;28;20222;-75
2021/09/28 12:22:43;;;;;;;0.70;0.70;;;12.40;99.90;;;;;;5012515;28;20234;-76
2021/09/28 12:25:26;;;;;;;1.08;0.90;;;12.40;99.90;;;;;;5009751;28;20210;-75
2021/09/28 12:28:04;;;;;;;1.15;0.70;;;12.40;99.90;;;;;;5003732;28;20231;-74
2021/09/28 12:30:36;;;;;;;0.80;0.80;;;12.40;99.90;;;;;;5004935;28;20198;-76
2021/09/28 12:33:05;;;;;;;0.63;0.63;;;12.40;99.90;;;;;;5012340;28;20669;-75
2021/09/28 12:35:37;;;;;;;0.88;0.88;;;12.40;99.90;;;;;;5010518;28;20294;-75
2021/09/28 12:38:09;;;;;;;0.70;0.70;;;12.40;99.90;;;;;;5011987;28;20302;-75
2021/09/28 12:40:43;;;;;;;0.63;0.63;;;12.40;99.90;;;;;;5011700;28;20217;-76
2021/09/28 12:43:15;;;;;;;0.60;0.60;;;12.50;99.90;;;;;;5012088;28;20213;-75
2021/09/28 12:45:47;;;;;;;0.60;0.60;;;12.50;99.90;;;;;;5011419;28;20213;-74
2021/09/28 12:48:14;;;;;;;0.68;0.68;;;12.50;99.90;;;;;;5011748;28;20520;-74
2021/09/28 12:50:41;;;;;;;0.60;0.60;;;12.50;99.90;;;;;;5010688;28;20217;-75
2021/09/28 12:53:12;;;;;;;0.70;0.70;;;12.50;99.90;;;;;;5011968;28;20199;-75
2021/09/28 12:55:39;;;;;;;0.55;0.55;;;12.50;99.90;;;;;;5011634;28;20230;-74
2021/09/28 12:58:06;;;;;;;0.60;0.60;;;12.50;99.90;;;;;;5011300;28;20222;-73
2021/09/28 13:00:32;;;;;;;0.60;0.60;;;12.50;99.90;;;;;;5010274;28;20293;-73